createdAt,value
2023-02-14T00:00:02.909Z,4.10
2023-02-14T00:01:03.092Z,4.00
2023-02-14T00:02:03.035Z,4.20
2023-02-14T00:03:02.901Z,4.40
2023-02-14T00:04:03.043Z,3.80
2023-02-14T00:05:03.104Z,4.30
2023-02-14T00:06:02.642Z,4.30
2023-02-14T00:07:06.603Z,4.00
2023-02-14T00:08:03.206Z,3.60
2023-02-14T00:09:02.937Z,3.40
2023-02-14T00:10:02.766Z,4.00
2023-02-14T00:11:02.677Z,4.30
2023-02-14T00:12:03.044Z,3.80
2023-02-14T00:13:02.701Z,4.60
2023-02-14T00:14:02.496Z,3.60
2023-02-14T00:15:02.553Z,4.10
2023-02-14T00:16:02.855Z,3.70
2023-02-14T00:17:03.286Z,3.80
2023-02-14T00:18:02.800Z,4.30
2023-02-14T00:19:02.686Z,3.90
2023-02-14T00:20:03.464Z,4.30
2023-02-14T00:21:02.636Z,4.10
2023-02-14T00:22:03.125Z,4.90
2023-02-14T00:23:02.735Z,4.60
2023-02-14T00:24:02.372Z,3.50
2023-02-14T00:25:03.074Z,4.20
2023-02-14T00:26:02.971Z,3.90
2023-02-14T00:27:03.154Z,3.80
2023-02-14T00:28:03.043Z,3.80
2023-02-14T00:29:03.206Z,3.70
2023-02-14T00:30:02.662Z,3.60
2023-02-14T00:31:03.192Z,3.80
2023-02-14T00:32:03.207Z,3.50
2023-02-14T00:33:03.094Z,3.60
2023-02-14T00:34:02.984Z,4.30
2023-02-14T00:35:02.791Z,4.60
2023-02-14T00:36:02.252Z,3.60
2023-02-14T00:37:02.316Z,3.40
2023-02-14T00:38:02.280Z,4.00
2023-02-14T00:39:02.234Z,3.80
2023-02-14T00:40:02.468Z,3.20
2023-02-14T00:41:02.524Z,4.20
2023-02-14T00:42:02.263Z,4.40
2023-02-14T00:43:02.098Z,4.40
2023-02-14T00:44:02.679Z,4.20
2023-02-14T00:45:02.805Z,4.00
2023-02-14T00:46:02.824Z,4.80
2023-02-14T00:47:02.844Z,4.00
2023-02-14T00:48:02.069Z,4.50
2023-02-14T00:49:02.187Z,3.80
2023-02-14T00:50:02.188Z,4.20
2023-02-14T00:51:02.119Z,4.20
2023-02-14T00:52:02.196Z,4.10
2023-02-14T00:53:03.157Z,3.60
2023-02-14T00:54:03.232Z,4.10
2023-02-14T00:55:02.145Z,3.90
2023-02-14T00:56:02.124Z,3.60
2023-02-14T00:57:02.104Z,4.50
2023-02-14T00:58:02.719Z,3.90
2023-02-14T00:59:02.624Z,3.80
2023-02-14T01:00:01.908Z,4.30
2023-02-14T01:01:02.734Z,3.90
2023-02-14T01:02:02.595Z,4.00
2023-02-14T01:03:02.756Z,3.90
2023-02-14T01:04:02.661Z,3.70
2023-02-14T01:05:01.814Z,3.90
2023-02-14T01:06:01.878Z,4.00
2023-02-14T01:07:01.940Z,4.30
2023-02-14T01:08:02.015Z,3.90
2023-02-14T01:09:02.028Z,4.20
2023-02-14T01:10:02.097Z,4.10
2023-02-14T01:11:02.391Z,3.70
2023-02-14T01:12:02.200Z,4.10
2023-02-14T01:13:02.258Z,3.80
2023-02-14T01:14:02.305Z,4.40
2023-02-14T01:15:02.047Z,3.80
2023-02-14T01:16:02.047Z,4.30
2023-02-14T01:17:02.439Z,3.90
2023-02-14T01:18:02.534Z,3.50
2023-02-14T01:19:02.519Z,4.30
2023-02-14T01:20:02.645Z,4.10
2023-02-14T01:21:02.700Z,4.20
2023-02-14T01:22:02.463Z,4.00
2023-02-14T01:23:02.390Z,5.00
2023-02-14T01:24:02.525Z,4.20
2023-02-14T01:25:02.435Z,4.90
2023-02-14T01:26:02.099Z,3.90
2023-02-14T01:27:01.705Z,4.50
2023-02-14T01:28:01.565Z,5.40
2023-02-14T01:29:02.301Z,4.80
2023-02-14T01:30:02.522Z,4.50
2023-02-14T01:31:02.608Z,4.80
2023-02-14T01:32:02.470Z,4.40
2023-02-14T01:33:02.161Z,4.90
2023-02-14T01:34:01.763Z,4.20
2023-02-14T01:35:02.143Z,4.90
2023-02-14T01:36:01.583Z,4.40
2023-02-14T01:37:01.589Z,3.90
2023-02-14T01:38:01.653Z,4.80
2023-02-14T01:39:01.711Z,4.90
2023-02-14T01:40:01.768Z,4.40
2023-02-14T01:41:02.023Z,4.00
2023-02-14T01:42:01.577Z,4.60
2023-02-14T01:43:01.932Z,4.30
2023-02-14T01:44:02.040Z,4.10
2023-02-14T01:45:02.083Z,4.10
2023-02-14T01:46:02.197Z,3.90
2023-02-14T01:47:02.210Z,3.40
2023-02-14T01:48:02.037Z,3.50
2023-02-14T01:49:01.948Z,4.70
2023-02-14T01:50:02.328Z,4.30
2023-02-14T01:51:01.698Z,3.60
2023-02-14T01:52:04.161Z,3.80
2023-02-14T01:53:02.489Z,4.40
2023-02-14T01:54:01.979Z,4.00
2023-02-14T01:55:02.571Z,4.00
2023-02-14T01:56:02.023Z,3.50
2023-02-14T01:57:01.555Z,3.70
2023-02-14T01:58:02.006Z,3.60
2023-02-14T01:59:02.006Z,4.40
2023-02-14T02:00:01.916Z,3.90
2023-02-14T02:01:02.440Z,4.70
2023-02-14T02:02:02.029Z,4.40
2023-02-14T02:03:01.909Z,4.20
2023-02-14T02:04:01.070Z,5.30
2023-02-14T02:05:02.039Z,4.30
2023-02-14T02:06:01.169Z,4.00
2023-02-14T02:07:01.187Z,4.30
2023-02-14T02:08:01.372Z,5.00
2023-02-14T02:09:01.111Z,4.60
2023-02-14T02:10:01.941Z,4.80
2023-02-14T02:11:01.749Z,4.20
2023-02-14T02:12:01.053Z,4.40
2023-02-14T02:13:01.556Z,4.30
2023-02-14T02:14:01.059Z,4.00
2023-02-14T02:15:01.669Z,4.40
2023-02-14T02:16:01.728Z,4.80
2023-02-14T02:17:01.869Z,4.20
2023-02-14T02:18:01.048Z,4.40
2023-02-14T02:19:01.621Z,4.70
2023-02-14T02:20:00.901Z,4.40
2023-02-14T02:21:01.358Z,4.00
2023-02-14T02:22:01.597Z,4.40
2023-02-14T02:23:02.105Z,4.20
2023-02-14T02:24:01.402Z,4.30
2023-02-14T02:25:01.576Z,4.60
2023-02-14T02:26:01.427Z,5.20
2023-02-14T02:27:01.624Z,4.00
2023-02-14T02:28:01.533Z,3.90
2023-02-14T02:29:01.056Z,3.90
2023-02-14T02:30:01.640Z,4.20
2023-02-14T02:31:02.069Z,4.80
2023-02-14T02:32:01.113Z,4.30
2023-02-14T02:33:00.737Z,4.10
2023-02-14T02:34:00.722Z,4.20
2023-02-14T02:35:00.830Z,3.90
2023-02-14T02:36:00.861Z,3.30
2023-02-14T02:37:00.931Z,3.70
2023-02-14T02:38:00.988Z,4.10
2023-02-14T02:39:01.038Z,3.70
2023-02-14T02:40:01.040Z,3.60
2023-02-14T02:41:01.373Z,3.50
2023-02-14T02:42:01.197Z,3.90
2023-02-14T02:43:01.017Z,4.50
2023-02-14T02:44:03.449Z,3.90
2023-02-14T02:45:01.367Z,4.20
2023-02-14T02:46:01.377Z,3.30
2023-02-14T02:47:01.571Z,4.20
2023-02-14T02:48:01.537Z,3.70
2023-02-14T02:49:01.289Z,3.80
2023-02-14T02:50:01.449Z,3.90
2023-02-14T02:51:01.478Z,3.80
2023-02-14T02:52:01.750Z,3.20
2023-02-14T02:53:01.213Z,3.70
2023-02-14T02:54:00.441Z,3.60
2023-02-14T02:55:01.232Z,3.60
2023-02-14T02:56:01.998Z,3.50
2023-02-14T02:57:00.869Z,3.60
2023-02-14T02:58:01.192Z,4.10
2023-02-14T02:59:01.373Z,4.10
2023-02-14T03:00:01.264Z,3.50
2023-02-14T03:01:01.456Z,3.50
2023-02-14T03:02:00.340Z,3.80
2023-02-14T03:03:00.384Z,3.60
2023-02-14T03:04:00.341Z,3.80
2023-02-14T03:05:00.581Z,3.30
2023-02-14T03:06:00.571Z,4.00
2023-02-14T03:07:00.609Z,4.20
2023-02-14T03:08:00.671Z,3.60
2023-02-14T03:09:00.724Z,3.70
2023-02-14T03:10:00.778Z,3.90
2023-02-14T03:11:01.159Z,3.80
2023-02-14T03:12:00.900Z,3.80
2023-02-14T03:13:00.952Z,3.30
2023-02-14T03:14:00.941Z,3.90
2023-02-14T03:15:01.073Z,3.80
2023-02-14T03:16:01.030Z,3.00
2023-02-14T03:17:00.909Z,3.40
2023-02-14T03:18:01.070Z,4.20
2023-02-14T03:19:01.300Z,3.80
2023-02-14T03:20:00.880Z,3.30
2023-02-14T03:21:01.388Z,3.70
2023-02-14T03:22:00.121Z,3.80
2023-02-14T03:23:00.844Z,3.30
2023-02-14T03:24:00.396Z,3.30
2023-02-14T03:25:01.343Z,4.20
2023-02-14T03:26:00.783Z,3.80
2023-02-14T03:27:01.000Z,2.90
2023-02-14T03:28:00.874Z,3.70
2023-02-14T03:29:00.057Z,3.70
2023-02-14T03:30:01.582Z,3.60
2023-02-14T03:31:00.268Z,3.20
2023-02-14T03:32:00.076Z,3.70
2023-02-14T03:33:00.091Z,4.10
2023-02-14T03:34:00.128Z,3.50
2023-02-14T03:35:00.182Z,3.00
2023-02-14T03:36:00.246Z,3.40
2023-02-14T03:37:00.357Z,3.70
2023-02-14T03:38:00.358Z,3.30
2023-02-14T03:39:00.430Z,3.10
2023-02-14T03:40:00.462Z,3.60
2023-02-14T03:41:00.887Z,3.30
2023-02-14T03:42:00.555Z,3.70
2023-02-14T03:42:59.835Z,3.50
2023-02-14T03:44:00.639Z,3.40
2023-02-14T03:45:00.568Z,3.50
2023-02-14T03:45:59.873Z,3.50
2023-02-14T03:47:00.585Z,3.50
2023-02-14T03:48:00.498Z,3.80
2023-02-14T03:49:00.645Z,3.60
2023-02-14T03:50:00.628Z,3.30
2023-02-14T03:51:00.101Z,3.50
2023-02-14T03:52:00.614Z,3.70
2023-02-14T03:53:00.536Z,3.20
2023-02-14T03:54:00.489Z,3.60
2023-02-14T03:55:00.586Z,3.90
2023-02-14T03:56:01.369Z,3.60
2023-02-14T03:57:00.393Z,3.40
2023-02-14T03:58:01.478Z,3.30
2023-02-14T03:59:00.450Z,3.50
2023-02-14T03:59:59.615Z,3.40
2023-02-14T04:01:01.515Z,3.00
2023-02-14T04:01:59.673Z,3.60
2023-02-14T04:02:59.760Z,3.50
2023-02-14T04:03:59.818Z,3.50
2023-02-14T04:04:59.871Z,3.60
2023-02-14T04:05:59.679Z,3.40
2023-02-14T04:07:00.001Z,3.60
2023-02-14T04:08:00.036Z,3.50
2023-02-14T04:09:00.111Z,3.20
2023-02-14T04:10:00.171Z,3.90
2023-02-14T04:11:00.652Z,3.10
2023-02-14T04:12:00.236Z,3.50
2023-02-14T04:13:00.176Z,3.50
2023-02-14T04:14:00.384Z,3.50
2023-02-14T04:14:59.730Z,3.90
2023-02-14T04:16:00.475Z,3.50
2023-02-14T04:17:00.271Z,2.80
2023-02-14T04:17:59.493Z,2.80
2023-02-14T04:19:00.124Z,3.60
2023-02-14T04:20:00.252Z,3.20
2023-02-14T04:21:00.476Z,3.10
2023-02-14T04:22:00.056Z,2.90
2023-02-14T04:23:01.303Z,2.80
2023-02-14T04:24:00.131Z,3.00
2023-02-14T04:25:00.105Z,2.90
2023-02-14T04:25:59.981Z,3.30
2023-02-14T04:27:00.512Z,3.30
2023-02-14T04:27:59.242Z,3.10
2023-02-14T04:28:59.277Z,2.90
2023-02-14T04:29:59.318Z,2.50
2023-02-14T04:30:59.788Z,3.20
2023-02-14T04:31:59.499Z,3.00
2023-02-14T04:32:59.476Z,2.80
2023-02-14T04:33:59.533Z,3.60
2023-02-14T04:34:59.588Z,3.20
2023-02-14T04:35:59.655Z,3.20
2023-02-14T04:36:59.563Z,3.20
2023-02-14T04:37:59.797Z,3.90
2023-02-14T04:38:59.451Z,3.00
2023-02-14T04:39:59.871Z,3.40
2023-02-14T04:41:00.184Z,3.40
2023-02-14T04:41:59.920Z,3.70
2023-02-14T04:43:00.029Z,3.60
2023-02-14T04:44:00.131Z,3.00
2023-02-14T04:45:00.400Z,3.10
2023-02-14T04:45:59.040Z,3.20
2023-02-14T04:46:59.959Z,3.60
2023-02-14T04:48:00.269Z,3.20
2023-02-14T04:48:59.087Z,4.10
2023-02-14T04:49:59.912Z,3.70
2023-02-14T04:50:59.508Z,3.50
2023-02-14T04:51:59.726Z,3.60
2023-02-14T04:53:00.351Z,3.60
2023-02-14T04:53:58.949Z,3.10
2023-02-14T04:54:59.688Z,3.60
2023-02-14T04:55:59.867Z,3.50
2023-02-14T04:56:58.883Z,3.10
2023-02-14T04:57:58.896Z,3.00
2023-02-14T04:58:58.946Z,3.70
2023-02-14T04:59:58.843Z,3.40
2023-02-14T05:00:59.525Z,3.80
2023-02-14T05:01:58.946Z,3.40
2023-02-14T05:02:59.667Z,3.00
2023-02-14T05:03:59.215Z,3.10
2023-02-14T05:04:59.276Z,3.50
2023-02-14T05:05:59.333Z,3.20
2023-02-14T05:06:59.385Z,4.00
2023-02-14T05:07:59.452Z,3.50
2023-02-14T05:08:59.502Z,3.50
2023-02-14T05:09:59.507Z,3.20
2023-02-14T05:10:59.820Z,3.70
2023-02-14T05:11:59.598Z,3.60
2023-02-14T05:12:59.495Z,3.10
2023-02-14T05:13:59.789Z,3.10
2023-02-14T05:14:59.842Z,3.60
2023-02-14T05:15:59.361Z,3.50
2023-02-14T05:16:59.029Z,3.40
2023-02-14T05:17:59.520Z,3.20
2023-02-14T05:18:59.477Z,3.50
2023-02-14T05:19:59.328Z,4.20
2023-02-14T05:20:59.760Z,3.90
2023-02-14T05:21:59.415Z,3.40
2023-02-14T05:22:59.299Z,4.40
2023-02-14T05:23:59.208Z,3.90
2023-02-14T05:24:59.370Z,3.00
2023-02-14T05:25:58.535Z,3.30
2023-02-14T05:26:58.514Z,3.70
2023-02-14T05:27:58.576Z,3.20
2023-02-14T05:28:58.622Z,3.20
2023-02-14T05:29:58.746Z,3.40
2023-02-14T05:30:59.248Z,3.00
2023-02-14T05:31:58.878Z,3.30
2023-02-14T05:32:58.832Z,3.40
2023-02-14T05:33:58.887Z,3.90
2023-02-14T05:35:00.961Z,3.70
2023-02-14T05:35:59.010Z,4.00
2023-02-14T05:36:59.045Z,3.50
2023-02-14T05:37:59.114Z,3.30
2023-02-14T05:38:59.044Z,3.40
2023-02-14T05:39:58.331Z,3.50
2023-02-14T05:40:59.450Z,3.60
2023-02-14T05:41:59.513Z,3.40
2023-02-14T05:42:59.175Z,3.30
2023-02-14T05:43:58.344Z,3.50
2023-02-14T05:44:58.977Z,3.80
2023-02-14T05:45:59.480Z,3.70
2023-02-14T05:46:58.244Z,3.30
2023-02-14T05:47:58.979Z,3.40
2023-02-14T05:48:58.850Z,4.10
2023-02-14T05:49:58.524Z,2.90
2023-02-14T05:50:59.226Z,3.50
2023-02-14T05:51:58.295Z,3.30
2023-02-14T05:52:58.955Z,3.40
2023-02-14T05:53:58.806Z,3.40
2023-02-14T05:54:58.954Z,3.00
2023-02-14T05:55:58.125Z,3.60
2023-02-14T05:56:58.154Z,3.60
2023-02-14T05:57:58.179Z,3.80
2023-02-14T05:58:58.243Z,3.10
2023-02-14T05:59:58.323Z,3.60
2023-02-14T06:00:58.554Z,3.30
2023-02-14T06:01:58.466Z,3.70
2023-02-14T06:02:59.576Z,4.00
2023-02-14T06:03:58.515Z,3.00
2023-02-14T06:04:58.570Z,3.30
2023-02-14T06:05:58.028Z,3.00
2023-02-14T06:06:58.214Z,3.50
2023-02-14T06:07:58.749Z,2.80
2023-02-14T06:08:58.725Z,2.90
2023-02-14T06:09:58.639Z,3.40
2023-02-14T06:10:59.285Z,3.70
2023-02-14T06:11:57.913Z,3.50
2023-02-14T06:12:58.609Z,3.30
2023-02-14T06:13:58.020Z,3.40
2023-02-14T06:14:58.675Z,3.00
2023-02-14T06:15:58.055Z,3.40
2023-02-14T06:16:58.073Z,3.30
2023-02-14T06:17:58.035Z,3.40
2023-02-14T06:18:59.054Z,3.40
2023-02-14T06:19:57.966Z,3.30
2023-02-14T06:20:58.922Z,3.30
2023-02-14T06:21:58.230Z,2.90
2023-02-14T06:22:58.677Z,3.10
2023-02-14T06:23:58.567Z,3.50
2023-02-14T06:24:57.726Z,3.80
2023-02-14T06:25:57.702Z,3.40
2023-02-14T06:26:57.862Z,4.40
2023-02-14T06:27:57.874Z,3.10
2023-02-14T06:28:57.720Z,3.80
2023-02-14T06:29:57.997Z,3.40
2023-02-14T06:30:58.254Z,4.10
2023-02-14T06:31:58.210Z,3.70
2023-02-14T06:32:58.122Z,3.70
2023-02-14T06:33:58.053Z,3.40
2023-02-14T06:34:58.261Z,3.10
2023-02-14T06:35:58.059Z,3.60
2023-02-14T06:36:58.211Z,3.80
2023-02-14T06:37:57.768Z,3.80
2023-02-14T06:38:58.019Z,3.50
2023-02-14T06:39:58.170Z,3.90
2023-02-14T06:41:00.364Z,3.50
2023-02-14T06:41:57.510Z,4.20
2023-02-14T06:42:57.940Z,4.00
2023-02-14T06:43:57.488Z,3.70
2023-02-14T06:44:57.635Z,3.80
2023-02-14T06:45:57.500Z,4.50
2023-02-14T06:46:57.446Z,3.60
2023-02-14T06:47:57.419Z,3.70
2023-02-14T06:48:57.433Z,3.90
2023-02-14T06:49:57.512Z,4.30
2023-02-14T06:50:57.865Z,3.50
2023-02-14T06:51:57.433Z,3.60
2023-02-14T06:52:57.466Z,3.90
2023-02-14T06:53:57.336Z,3.50
2023-02-14T06:54:58.145Z,4.10
2023-02-14T06:55:57.442Z,3.70
2023-02-14T06:56:58.224Z,3.80
2023-02-14T06:57:57.420Z,3.20
2023-02-14T06:58:57.376Z,3.60
2023-02-14T06:59:57.417Z,3.60
2023-02-14T07:00:57.709Z,4.10
2023-02-14T07:01:57.384Z,3.40
2023-02-14T07:02:57.490Z,3.80
2023-02-14T07:03:57.420Z,3.20
2023-02-14T07:04:57.418Z,4.00
2023-02-14T07:05:57.431Z,4.20
2023-02-14T07:06:57.217Z,3.60
2023-02-14T07:07:57.415Z,3.50
2023-02-14T07:08:57.414Z,4.00
2023-02-14T07:09:57.421Z,3.90
2023-02-14T07:10:57.936Z,4.40
2023-02-14T07:11:57.448Z,3.90
2023-02-14T07:12:57.422Z,4.10
2023-02-14T07:13:57.425Z,4.30
2023-02-14T07:14:57.453Z,4.50
2023-02-14T07:15:57.134Z,4.30
2023-02-14T07:16:57.240Z,4.20
2023-02-14T07:17:57.462Z,4.20
2023-02-14T07:18:57.412Z,4.50
2023-02-14T07:19:57.049Z,4.40
2023-02-14T07:20:57.418Z,5.10
2023-02-14T07:21:56.990Z,4.10
2023-02-14T07:22:56.950Z,4.90
2023-02-14T07:23:57.021Z,4.50
2023-02-14T07:24:57.062Z,4.30
2023-02-14T07:25:57.148Z,4.30
2023-02-14T07:26:57.159Z,4.10
2023-02-14T07:27:57.221Z,4.30
2023-02-14T07:28:57.301Z,4.60
2023-02-14T07:29:57.352Z,5.30
2023-02-14T07:30:57.565Z,4.20
2023-02-14T07:31:56.984Z,3.70
2023-02-14T07:32:57.411Z,4.50
2023-02-14T07:33:57.418Z,4.30
2023-02-14T07:34:57.410Z,4.90
2023-02-14T07:35:57.410Z,4.20
2023-02-14T07:36:57.212Z,4.20
2023-02-14T07:37:57.417Z,4.60
2023-02-14T07:38:57.423Z,4.10
2023-02-14T07:39:56.791Z,4.60
2023-02-14T07:40:56.822Z,4.30
2023-02-14T07:41:57.417Z,4.40
2023-02-14T07:42:57.425Z,5.30
2023-02-14T07:43:57.476Z,3.90
2023-02-14T07:44:57.021Z,4.10
2023-02-14T07:45:57.430Z,4.40
2023-02-14T07:46:57.217Z,4.50
2023-02-14T07:47:57.413Z,4.20
2023-02-14T07:48:57.415Z,4.20
2023-02-14T07:49:57.536Z,4.50
2023-02-14T07:50:57.120Z,3.70
2023-02-14T07:51:57.416Z,4.30
2023-02-14T07:52:56.585Z,4.20
2023-02-14T07:53:56.633Z,4.60
2023-02-14T07:54:56.695Z,4.00
2023-02-14T07:55:56.747Z,4.50
2023-02-14T07:56:56.622Z,5.00
2023-02-14T07:57:56.854Z,4.90
2023-02-14T07:58:56.904Z,4.30
2023-02-14T07:59:57.001Z,4.50
2023-02-14T08:00:57.148Z,3.30
2023-02-14T08:01:57.113Z,4.70
2023-02-14T08:02:57.138Z,4.80
2023-02-14T08:03:56.430Z,4.50
2023-02-14T08:04:57.312Z,4.50
2023-02-14T08:05:56.402Z,5.50
2023-02-14T08:06:56.408Z,4.10
2023-02-14T08:07:56.412Z,4.70
2023-02-14T08:08:56.424Z,4.40
2023-02-14T08:09:56.415Z,4.90
2023-02-14T08:10:56.416Z,4.70
2023-02-14T08:11:56.410Z,4.10
2023-02-14T08:12:56.330Z,3.80
2023-02-14T08:13:56.412Z,3.80
2023-02-14T08:14:56.410Z,4.20
2023-02-14T08:15:56.444Z,4.60
2023-02-14T08:16:56.405Z,3.70
2023-02-14T08:17:56.338Z,3.90
2023-02-14T08:18:56.433Z,4.00
2023-02-14T08:19:56.413Z,4.70
2023-02-14T08:20:56.259Z,6.20
2023-02-14T08:21:56.186Z,4.50
2023-02-14T08:22:56.237Z,4.60
2023-02-14T08:23:56.288Z,4.70
2023-02-14T08:24:56.348Z,4.60
2023-02-14T08:25:56.410Z,4.60
2023-02-14T08:26:56.415Z,4.70
2023-02-14T08:27:56.396Z,4.70
2023-02-14T08:28:57.022Z,4.80
2023-02-14T08:29:56.243Z,4.50
2023-02-14T08:30:56.484Z,4.40
2023-02-14T08:31:56.525Z,5.00
2023-02-14T08:32:56.406Z,5.50
2023-02-14T08:33:56.423Z,5.00
2023-02-14T08:34:56.412Z,4.50
2023-02-14T08:35:56.412Z,4.30
2023-02-14T08:36:56.030Z,4.90
2023-02-14T08:37:56.418Z,4.80
2023-02-14T08:38:56.403Z,5.10
2023-02-14T08:39:56.439Z,4.40
2023-02-14T08:40:55.962Z,5.30
2023-02-14T08:41:56.400Z,4.80
2023-02-14T08:42:56.376Z,4.90
2023-02-14T08:43:56.446Z,4.80
2023-02-14T08:44:56.408Z,5.00
2023-02-14T08:45:56.432Z,5.00
2023-02-14T08:46:56.476Z,4.40
2023-02-14T08:47:56.409Z,4.80
2023-02-14T08:48:56.415Z,4.90
2023-02-14T08:49:56.447Z,4.40
2023-02-14T08:50:56.434Z,5.50
2023-02-14T08:51:55.828Z,6.00
2023-02-14T08:52:55.902Z,5.00
2023-02-14T08:53:55.959Z,4.90
2023-02-14T08:54:56.032Z,5.00
2023-02-14T08:55:56.059Z,5.00
2023-02-14T08:56:56.125Z,5.10
2023-02-14T08:57:56.195Z,5.30
2023-02-14T08:58:56.233Z,5.20
2023-02-14T08:59:56.290Z,5.00
2023-02-14T09:00:56.157Z,6.30
2023-02-14T09:01:56.413Z,5.30
2023-02-14T09:02:56.407Z,5.00
2023-02-14T09:03:56.431Z,5.00
2023-02-14T09:04:56.314Z,5.90
2023-02-14T09:05:56.397Z,5.00
2023-02-14T09:06:56.397Z,4.90
2023-02-14T09:07:56.033Z,4.70
2023-02-14T09:08:56.404Z,5.50
2023-02-14T09:09:56.410Z,5.10
2023-02-14T09:10:56.372Z,5.80
2023-02-14T09:11:56.412Z,5.30
2023-02-14T09:12:55.539Z,5.30
2023-02-14T09:13:56.348Z,5.60
2023-02-14T09:14:56.492Z,5.70
2023-02-14T09:15:56.484Z,5.90
2023-02-14T09:16:56.219Z,5.30
2023-02-14T09:17:56.229Z,5.70
2023-02-14T09:18:56.357Z,5.50
2023-02-14T09:19:56.255Z,5.80
2023-02-14T09:20:55.480Z,5.20
2023-02-14T09:21:55.504Z,5.90
2023-02-14T09:22:55.564Z,4.90
2023-02-14T09:23:55.602Z,5.40
2023-02-14T09:24:55.568Z,5.70
2023-02-14T09:25:55.714Z,5.70
2023-02-14T09:26:55.766Z,5.50
2023-02-14T09:27:55.827Z,5.60
2023-02-14T09:28:55.366Z,4.90
2023-02-14T09:29:55.972Z,6.10
2023-02-14T09:30:55.861Z,5.40
2023-02-14T09:31:56.116Z,5.30
2023-02-14T09:32:55.620Z,6.20
2023-02-14T09:33:56.161Z,5.90
2023-02-14T09:34:56.108Z,5.50
2023-02-14T09:35:56.009Z,5.50
2023-02-14T09:36:55.251Z,5.10
2023-02-14T09:37:55.967Z,5.30
2023-02-14T09:38:55.567Z,6.00
2023-02-14T09:39:56.132Z,5.90
2023-02-14T09:40:56.041Z,5.20
2023-02-14T09:41:56.404Z,5.80
2023-02-14T09:42:56.093Z,5.70
2023-02-14T09:43:56.013Z,5.40
2023-02-14T09:44:55.907Z,5.10
2023-02-14T09:45:55.896Z,5.50
2023-02-14T09:46:55.130Z,5.40
2023-02-14T09:47:55.103Z,5.10
2023-02-14T09:48:55.686Z,5.40
2023-02-14T09:49:55.640Z,5.70
2023-02-14T09:50:55.111Z,5.70
2023-02-14T09:51:55.160Z,5.00
2023-02-14T09:52:55.263Z,5.30
2023-02-14T09:53:55.045Z,5.20
2023-02-14T09:54:55.362Z,5.00
2023-02-14T09:55:55.237Z,5.40
2023-02-14T09:56:55.204Z,5.50
2023-02-14T09:57:55.528Z,5.40
2023-02-14T09:58:55.042Z,5.80
2023-02-14T09:59:55.627Z,5.30
2023-02-14T10:00:55.715Z,5.10
2023-02-14T10:01:55.021Z,4.70
2023-02-14T10:02:54.917Z,5.10
2023-02-14T10:03:55.637Z,5.80
2023-02-14T10:04:55.915Z,5.70
2023-02-14T10:05:55.679Z,5.00
2023-02-14T10:06:55.222Z,6.30
2023-02-14T10:07:55.640Z,6.30
2023-02-14T10:08:54.821Z,6.00
2023-02-14T10:09:55.030Z,5.80
2023-02-14T10:10:55.718Z,6.10
2023-02-14T10:11:55.621Z,5.70
2023-02-14T10:12:55.015Z,6.00
2023-02-14T10:13:55.681Z,5.30
2023-02-14T10:14:55.587Z,5.30
2023-02-14T10:15:56.118Z,5.70
2023-02-14T10:16:54.818Z,5.30
2023-02-14T10:17:54.789Z,6.50
2023-02-14T10:18:54.860Z,5.70
2023-02-14T10:19:54.900Z,6.30
2023-02-14T10:20:54.958Z,6.10
2023-02-14T10:21:55.011Z,5.70
2023-02-14T10:22:55.059Z,6.20
2023-02-14T10:23:55.026Z,5.60
2023-02-14T10:24:55.075Z,6.40
2023-02-14T10:25:55.311Z,5.30
2023-02-14T10:26:54.587Z,5.50
2023-02-14T10:27:55.375Z,6.50
2023-02-14T10:28:55.497Z,5.60
2023-02-14T10:29:55.503Z,5.70
2023-02-14T10:30:55.401Z,5.40
2023-02-14T10:31:55.138Z,5.20
2023-02-14T10:32:55.420Z,5.60
2023-02-14T10:33:57.508Z,5.60
2023-02-14T10:34:55.024Z,5.70
2023-02-14T10:35:55.366Z,5.70
2023-02-14T10:36:55.205Z,5.90
2023-02-14T10:37:55.182Z,5.70
2023-02-14T10:38:55.950Z,4.80
2023-02-14T10:39:55.237Z,5.20
2023-02-14T10:40:55.136Z,6.30
2023-02-14T10:41:55.348Z,5.50
2023-02-14T10:42:55.036Z,6.10
2023-02-14T10:43:54.346Z,5.80
2023-02-14T10:44:54.393Z,5.70
2023-02-14T10:45:54.528Z,5.90
2023-02-14T10:46:54.517Z,6.00
2023-02-14T10:47:54.551Z,5.40
2023-02-14T10:48:54.276Z,5.20
2023-02-14T10:49:54.274Z,5.40
2023-02-14T10:50:54.705Z,5.20
2023-02-14T10:51:54.253Z,5.10
2023-02-14T10:52:54.273Z,5.40
2023-02-14T10:53:54.255Z,5.40
2023-02-14T10:54:54.250Z,5.70
2023-02-14T10:55:54.240Z,5.40
2023-02-14T10:56:54.251Z,5.40
2023-02-14T10:57:54.248Z,5.30
2023-02-14T10:58:54.266Z,5.50
2023-02-14T10:59:54.248Z,5.50
2023-02-14T11:00:54.384Z,5.20
2023-02-14T11:01:54.251Z,4.60
2023-02-14T11:02:54.260Z,5.60
2023-02-14T11:03:54.287Z,5.50
2023-02-14T11:04:54.247Z,4.70
2023-02-14T11:05:54.269Z,5.50
2023-02-14T11:06:54.271Z,4.80
2023-02-14T11:07:54.269Z,5.20
2023-02-14T11:08:56.338Z,5.00
2023-02-14T11:09:54.050Z,6.20
2023-02-14T11:10:54.052Z,5.30
2023-02-14T11:11:54.244Z,5.20
2023-02-14T11:12:53.964Z,6.00
2023-02-14T11:13:54.002Z,4.70
2023-02-14T11:14:54.056Z,5.50
2023-02-14T11:15:54.057Z,4.90
2023-02-14T11:16:53.958Z,5.50
2023-02-14T11:17:54.217Z,4.00
2023-02-14T11:18:54.269Z,5.20
2023-02-14T11:19:54.269Z,4.90
2023-02-14T11:20:54.244Z,5.10
2023-02-14T11:21:54.316Z,4.50
2023-02-14T11:22:54.256Z,4.90
2023-02-14T11:23:54.266Z,5.00
2023-02-14T11:24:53.825Z,4.50
2023-02-14T11:25:54.306Z,4.90
2023-02-14T11:26:54.258Z,5.10
2023-02-14T11:27:54.249Z,5.80
2023-02-14T11:28:54.260Z,5.00
2023-02-14T11:29:53.904Z,5.20
2023-02-14T11:30:54.416Z,5.30
2023-02-14T11:31:54.320Z,4.90
2023-02-14T11:32:54.272Z,4.50
2023-02-14T11:33:54.303Z,5.50
2023-02-14T11:34:53.688Z,5.70
2023-02-14T11:35:54.254Z,5.20
2023-02-14T11:36:54.259Z,4.90
2023-02-14T11:37:54.258Z,5.10
2023-02-14T11:38:54.255Z,4.90
2023-02-14T11:39:54.248Z,5.00
2023-02-14T11:40:54.236Z,5.20
2023-02-14T11:41:53.630Z,5.00
2023-02-14T11:43:02.202Z,5.00
2023-02-14T11:43:55.552Z,5.30
2023-02-14T11:44:53.735Z,5.70
2023-02-14T11:45:53.794Z,5.40
2023-02-14T11:46:54.272Z,5.80
2023-02-14T11:47:53.905Z,6.00
2023-02-14T11:48:53.954Z,5.00
2023-02-14T11:49:54.020Z,5.90
2023-02-14T11:50:53.479Z,5.40
2023-02-14T11:51:54.135Z,4.90
2023-02-14T11:52:54.015Z,5.70
2023-02-14T11:53:54.249Z,6.00
2023-02-14T11:54:54.192Z,5.30
2023-02-14T11:55:54.236Z,4.70
2023-02-14T11:56:54.247Z,4.90
2023-02-14T11:57:53.528Z,4.90
2023-02-14T11:58:54.268Z,4.60
2023-02-14T11:59:54.255Z,5.50
2023-02-14T12:00:54.132Z,5.10
2023-02-14T12:01:54.026Z,5.40
2023-02-14T12:02:54.179Z,5.00
2023-02-14T12:03:53.389Z,5.60
2023-02-14T12:04:53.747Z,4.80
2023-02-14T12:05:54.157Z,4.80
2023-02-14T12:06:54.066Z,4.20
2023-02-14T12:07:54.217Z,5.30
2023-02-14T12:08:54.116Z,5.00
2023-02-14T12:09:54.020Z,6.20
2023-02-14T12:10:53.208Z,4.70
2023-02-14T12:11:53.260Z,4.80
2023-02-14T12:12:53.329Z,4.90
2023-02-14T12:13:53.382Z,5.70
2023-02-14T12:14:53.428Z,5.20
2023-02-14T12:15:53.576Z,5.00
2023-02-14T12:16:53.227Z,5.40
2023-02-14T12:17:53.590Z,4.90
2023-02-14T12:18:53.646Z,5.20
2023-02-14T12:19:53.730Z,4.80
2023-02-14T12:20:53.769Z,4.70
2023-02-14T12:21:53.849Z,5.20
2023-02-14T12:22:53.798Z,5.10
2023-02-14T12:23:53.939Z,4.80
2023-02-14T12:24:53.862Z,5.40
2023-02-14T12:25:53.784Z,4.40
2023-02-14T12:26:53.239Z,5.00
2023-02-14T12:27:53.052Z,4.90
2023-02-14T12:28:53.760Z,5.30
2023-02-14T12:29:53.935Z,5.20
2023-02-14T12:30:53.024Z,4.80
2023-02-14T12:31:53.815Z,5.20
2023-02-14T12:32:52.903Z,4.80
2023-02-14T12:33:53.292Z,4.40
2023-02-14T12:34:53.674Z,5.40
2023-02-14T12:35:54.240Z,5.30
2023-02-14T12:36:53.204Z,5.50
2023-02-14T12:38:03.770Z,4.50
2023-02-14T12:38:53.978Z,5.40
2023-02-14T12:39:52.840Z,4.40
2023-02-14T12:40:52.920Z,5.20
2023-02-14T12:41:52.934Z,5.30
2023-02-14T12:42:52.997Z,5.00
2023-02-14T12:43:53.054Z,4.60
2023-02-14T12:44:53.106Z,5.00
2023-02-14T12:45:53.153Z,4.80
2023-02-14T12:46:53.202Z,4.50
2023-02-14T12:47:53.276Z,5.20
2023-02-14T12:48:53.342Z,5.00
2023-02-14T12:49:53.384Z,5.40
2023-02-14T12:50:53.414Z,5.00
2023-02-14T12:51:53.495Z,6.10
2023-02-14T12:52:53.482Z,5.30
2023-02-14T12:53:52.940Z,5.10
2023-02-14T12:54:52.958Z,4.50
2023-02-14T12:55:52.675Z,5.00
2023-02-14T12:56:53.229Z,5.00
2023-02-14T12:57:53.243Z,5.30
2023-02-14T12:58:53.057Z,6.10
2023-02-14T12:59:53.315Z,5.50
2023-02-14T13:00:53.484Z,5.00
2023-02-14T13:01:53.511Z,5.60
2023-02-14T13:02:53.381Z,4.10
2023-02-14T13:03:53.456Z,4.70
2023-02-14T13:04:53.381Z,4.80
2023-02-14T13:05:52.690Z,5.20
2023-02-14T13:06:53.175Z,4.70
2023-02-14T13:07:52.437Z,4.40
2023-02-14T13:08:52.452Z,5.60
2023-02-14T13:09:52.508Z,4.70
2023-02-14T13:10:52.598Z,4.70
2023-02-14T13:11:52.627Z,5.50
2023-02-14T13:12:52.687Z,4.80
2023-02-14T13:13:52.386Z,4.90
2023-02-14T13:14:52.788Z,5.00
2023-02-14T13:15:53.293Z,5.60
2023-02-14T13:16:52.901Z,4.60
2023-02-14T13:17:52.958Z,4.30